createdAt,value
2022-10-24T00:00:17.895Z,8.80
2022-10-24T00:01:22.360Z,13.17
2022-10-24T00:02:24.603Z,8.53
2022-10-24T00:03:26.327Z,9.60
2022-10-24T00:04:27.879Z,9.37
2022-10-24T00:05:29.482Z,7.50
2022-10-24T00:06:33.833Z,7.50
2022-10-24T00:07:35.418Z,10.33
2022-10-24T00:08:37.848Z,12.87
2022-10-24T00:09:39.425Z,11.03
2022-10-24T00:10:43.886Z,12.07
2022-10-24T00:11:45.498Z,8.47
2022-10-24T00:12:47.380Z,11.97
2022-10-24T00:13:50.364Z,9.80
2022-10-24T00:14:51.989Z,11.13
2022-10-24T00:15:53.562Z,9.43
2022-10-24T00:16:55.272Z,11.23
2022-10-24T00:17:56.963Z,9.13
2022-10-24T00:18:58.646Z,8.97
2022-10-24T00:20:02.705Z,12.27
2022-10-24T00:21:07.571Z,8.80
2022-10-24T00:22:09.394Z,9.77
2022-10-24T00:23:13.618Z,7.13
2022-10-24T00:24:15.562Z,11.43
2022-10-24T00:25:17.272Z,10.13
2022-10-24T00:26:19.032Z,8.53
2022-10-24T00:27:20.649Z,9.07
2022-10-24T00:28:22.260Z,11.27
2022-10-24T00:29:24.746Z,8.07
2022-10-24T00:30:26.534Z,10.00
2022-10-24T00:31:28.550Z,8.57
2022-10-24T00:32:30.090Z,8.60
2022-10-24T00:33:31.732Z,14.43
2022-10-24T00:34:33.373Z,10.70
2022-10-24T00:35:34.980Z,9.27
2022-10-24T00:36:36.634Z,9.70
2022-10-24T00:37:38.286Z,9.13
2022-10-24T00:38:39.942Z,7.73
2022-10-24T00:39:41.503Z,12.07
2022-10-24T00:40:43.650Z,11.40
2022-10-24T00:41:45.442Z,11.20
2022-10-24T00:42:48.560Z,15.10
2022-10-24T00:43:50.534Z,8.30
2022-10-24T00:44:53.578Z,9.73
2022-10-24T00:45:56.809Z,9.20
2022-10-24T00:47:05.143Z,10.33
2022-10-24T00:48:35.562Z,8.57
2022-10-24T00:50:13.311Z,7.57
2022-10-24T00:51:24.775Z,7.23
2022-10-24T00:52:33.075Z,5.97
2022-10-24T00:53:40.748Z,10.30
2022-10-24T00:54:43.164Z,7.17
2022-10-24T00:55:48.346Z,10.97
2022-10-24T00:57:00.105Z,10.10
2022-10-24T00:58:02.733Z,11.27
2022-10-24T00:59:07.256Z,13.43
2022-10-24T01:00:20.991Z,9.63
2022-10-24T01:01:25.475Z,13.73
2022-10-24T01:02:27.343Z,16.83
2022-10-24T01:03:31.607Z,11.13
2022-10-24T01:04:33.289Z,17.90
2022-10-24T01:05:54.672Z,17.17
2022-10-24T01:07:11.351Z,15.07
2022-10-24T01:08:42.032Z,17.00
2022-10-24T01:10:06.657Z,15.33
2022-10-24T01:11:23.365Z,16.87
2022-10-24T01:12:38.937Z,11.87
2022-10-24T01:13:57.191Z,14.83
2022-10-24T01:15:22.956Z,11.90
2022-10-24T01:16:34.701Z,11.67
2022-10-24T01:17:48.684Z,9.63
2022-10-24T01:18:58.472Z,18.13
2022-10-24T01:20:26.724Z,15.10
2022-10-24T01:21:40.144Z,16.87
2022-10-24T01:23:19.123Z,16.37
2022-10-24T01:24:49.505Z,16.70
2022-10-24T01:25:50.995Z,14.97
2022-10-24T01:27:09.914Z,14.97
2022-10-24T01:28:16.755Z,9.73
2022-10-24T01:29:32.329Z,9.77
2022-10-24T01:30:43.356Z,12.50
2022-10-24T01:31:57.805Z,13.27
2022-10-24T01:33:15.929Z,12.03
2022-10-24T01:34:29.065Z,19.10
2022-10-24T01:35:52.067Z,10.00
2022-10-24T01:37:08.022Z,10.10
2022-10-24T01:38:14.770Z,8.67
2022-10-24T01:39:20.433Z,14.77
2022-10-24T01:40:55.169Z,8.67
2022-10-24T01:41:58.756Z,10.80
2022-10-24T01:43:08.248Z,11.57
2022-10-24T01:44:25.598Z,11.87
2022-10-24T01:45:34.689Z,7.87
2022-10-24T01:46:44.550Z,10.10
2022-10-24T01:47:53.717Z,10.73
2022-10-24T01:49:05.376Z,7.37
2022-10-24T01:50:11.913Z,15.10
2022-10-24T01:51:17.147Z,9.40
2022-10-24T01:52:20.159Z,12.43
2022-10-24T01:53:25.034Z,10.83
2022-10-24T01:54:28.257Z,12.93
2022-10-24T01:55:32.698Z,11.90
2022-10-24T01:56:34.689Z,8.83
2022-10-24T01:57:36.305Z,9.37
2022-10-24T01:58:37.950Z,11.80
2022-10-24T01:59:43.405Z,13.40
2022-10-24T02:00:47.267Z,11.07
2022-10-24T02:01:49.149Z,8.57
2022-10-24T02:03:04.105Z,11.10
2022-10-24T02:04:11.077Z,10.70
2022-10-24T02:05:17.182Z,8.77
2022-10-24T02:06:35.231Z,8.77
2022-10-24T02:07:40.977Z,10.53
2022-10-24T02:08:48.880Z,20.40
2022-10-24T02:10:00.578Z,17.93
2022-10-24T02:11:06.655Z,16.77
2022-10-24T02:12:10.385Z,9.97
2022-10-24T02:13:19.264Z,13.97
2022-10-24T02:14:28.205Z,10.87
2022-10-24T02:15:33.884Z,12.53
2022-10-24T02:16:35.713Z,13.13
2022-10-24T02:17:39.559Z,9.10
2022-10-24T02:18:41.609Z,9.77
2022-10-24T02:19:44.473Z,11.93
2022-10-24T02:20:54.840Z,13.20
2022-10-24T02:22:02.189Z,12.10
2022-10-24T02:23:13.277Z,10.17
2022-10-24T02:24:22.161Z,7.83
2022-10-24T02:25:33.700Z,11.30
2022-10-24T02:26:41.799Z,13.10
2022-10-24T02:27:55.851Z,12.77
2022-10-24T02:29:01.803Z,10.67
2022-10-24T02:30:13.675Z,9.77
2022-10-24T02:31:21.851Z,10.57
2022-10-24T02:32:29.736Z,8.17
2022-10-24T02:33:34.248Z,10.23
2022-10-24T02:34:38.579Z,9.53
2022-10-24T02:35:41.618Z,7.67
2022-10-24T02:36:44.951Z,9.33
2022-10-24T02:37:51.725Z,9.90
2022-10-24T02:38:55.338Z,8.00
2022-10-24T02:39:59.545Z,9.40
2022-10-24T02:41:04.990Z,9.70
2022-10-24T02:42:08.707Z,10.47
2022-10-24T02:43:12.813Z,13.87
2022-10-24T02:44:16.634Z,9.80
2022-10-24T02:45:21.142Z,11.90
2022-10-24T02:46:25.321Z,12.27
2022-10-24T02:47:28.597Z,10.33
2022-10-24T02:48:34.825Z,7.07
2022-10-24T02:49:36.603Z,11.63
2022-10-24T02:50:41.024Z,12.50
2022-10-24T02:51:46.060Z,15.63
2022-10-24T02:52:48.268Z,12.13
2022-10-24T02:53:50.852Z,6.43
2022-10-24T02:54:53.659Z,7.80
2022-10-24T02:55:55.402Z,8.13
2022-10-24T02:57:01.431Z,7.67
2022-10-24T02:58:03.208Z,11.67
2022-10-24T02:59:04.870Z,8.33
2022-10-24T03:00:08.012Z,7.77
2022-10-24T03:01:09.917Z,9.87
2022-10-24T03:02:11.731Z,9.30
2022-10-24T03:03:13.765Z,11.23
2022-10-24T03:04:15.624Z,7.97
2022-10-24T03:05:17.312Z,8.23
2022-10-24T03:06:18.960Z,8.10
2022-10-24T03:07:20.744Z,7.80
2022-10-24T03:08:22.444Z,7.77
2022-10-24T03:09:24.111Z,8.17
2022-10-24T03:10:25.775Z,10.90
2022-10-24T03:11:27.587Z,7.97
2022-10-24T03:12:29.192Z,6.13
2022-10-24T03:13:30.842Z,10.00
2022-10-24T03:14:32.856Z,14.30
2022-10-24T03:15:34.580Z,9.87
2022-10-24T03:16:36.312Z,6.90
2022-10-24T03:17:37.997Z,9.90
2022-10-24T03:18:39.778Z,6.57
2022-10-24T03:19:41.413Z,10.20
2022-10-24T03:20:43.067Z,13.60
2022-10-24T03:21:44.762Z,9.77
2022-10-24T03:22:46.393Z,8.57
2022-10-24T03:23:48.181Z,9.17
2022-10-24T03:24:56.465Z,8.33
2022-10-24T03:25:59.317Z,7.70
2022-10-24T03:27:00.972Z,9.07
2022-10-24T03:28:02.680Z,8.60
2022-10-24T03:29:04.845Z,9.87
2022-10-24T03:30:07.355Z,7.90
2022-10-24T03:31:09.155Z,10.60
2022-10-24T03:32:13.177Z,12.53
2022-10-24T03:33:19.019Z,10.73
2022-10-24T03:34:20.838Z,12.17
2022-10-24T03:35:22.616Z,11.13
2022-10-24T03:36:24.520Z,15.27
2022-10-24T03:37:26.541Z,20.03
2022-10-24T03:38:28.289Z,17.00
2022-10-24T03:39:32.220Z,17.60
2022-10-24T03:40:37.430Z,20.27
2022-10-24T03:41:39.060Z,22.70
2022-10-24T03:42:40.740Z,24.20
2022-10-24T03:43:42.513Z,22.83
2022-10-24T03:44:44.227Z,16.23
2022-10-24T03:45:45.989Z,14.07
2022-10-24T03:46:47.750Z,17.90
2022-10-24T03:47:49.448Z,16.47
2022-10-24T03:48:51.110Z,14.27
2022-10-24T03:49:52.839Z,14.93
2022-10-24T03:50:56.009Z,12.80
2022-10-24T03:51:57.743Z,15.13
2022-10-24T03:53:00.016Z,14.20
2022-10-24T03:54:01.605Z,15.10
2022-10-24T03:55:03.417Z,9.53
2022-10-24T03:56:05.254Z,14.23
2022-10-24T03:57:09.969Z,17.60
2022-10-24T03:58:11.601Z,13.53
2022-10-24T03:59:13.600Z,25.40
2022-10-24T04:00:15.650Z,20.77
2022-10-24T04:01:18.643Z,14.33
2022-10-24T04:02:20.581Z,16.00
2022-10-24T04:03:22.167Z,13.97
2022-10-24T04:04:23.844Z,16.17
2022-10-24T04:05:25.478Z,12.67
2022-10-24T04:06:27.429Z,13.77
2022-10-24T04:07:31.230Z,15.27
2022-10-24T04:08:32.830Z,12.47
2022-10-24T04:09:34.505Z,12.97
2022-10-24T04:10:36.327Z,16.67
2022-10-24T04:11:40.725Z,18.60
2022-10-24T04:12:42.436Z,14.43
2022-10-24T04:13:44.274Z,17.63
2022-10-24T04:14:48.345Z,13.90
2022-10-24T04:15:50.059Z,10.93
2022-10-24T04:16:51.731Z,15.57
2022-10-24T04:17:53.419Z,12.60
2022-10-24T04:18:55.014Z,11.97
2022-10-24T04:19:56.587Z,10.80
2022-10-24T04:20:58.277Z,19.60
2022-10-24T04:22:00.296Z,13.80
2022-10-24T04:23:04.410Z,9.00
2022-10-24T04:24:06.831Z,13.27
2022-10-24T04:25:08.531Z,10.33
2022-10-24T04:26:12.976Z,13.23
2022-10-24T04:27:14.575Z,13.83
2022-10-24T04:28:16.353Z,17.40
2022-10-24T04:29:17.989Z,14.43
2022-10-24T04:30:19.683Z,10.77
2022-10-24T04:31:23.518Z,16.50
2022-10-24T04:32:25.580Z,16.83
2022-10-24T04:33:27.164Z,13.10
2022-10-24T04:34:28.729Z,12.77
2022-10-24T04:35:30.609Z,12.23
2022-10-24T04:36:43.051Z,14.57
2022-10-24T04:37:44.636Z,11.37
2022-10-24T04:38:46.273Z,14.30
2022-10-24T04:39:48.142Z,18.37
2022-10-24T04:40:54.293Z,16.63
2022-10-24T04:41:56.039Z,15.07
2022-10-24T04:42:57.665Z,15.70
2022-10-24T04:43:59.506Z,16.63
2022-10-24T04:45:01.106Z,13.50
2022-10-24T04:46:02.744Z,14.77
2022-10-24T04:47:04.444Z,15.70
2022-10-24T04:48:06.448Z,11.53
2022-10-24T04:49:08.091Z,10.47
2022-10-24T04:50:10.179Z,16.00
2022-10-24T04:51:12.068Z,10.47
2022-10-24T04:52:13.798Z,17.10
2022-10-24T04:53:17.333Z,11.47
2022-10-24T04:54:18.985Z,15.47
2022-10-24T04:55:20.605Z,11.90
2022-10-24T04:56:22.928Z,15.03
2022-10-24T04:57:26.926Z,11.67
2022-10-24T04:58:28.636Z,15.40
2022-10-24T04:59:30.234Z,12.20
2022-10-24T05:00:31.948Z,12.37
2022-10-24T05:01:33.702Z,23.47
2022-10-24T05:02:35.520Z,9.27
2022-10-24T05:03:37.252Z,12.37
2022-10-24T05:04:38.954Z,12.47
2022-10-24T05:05:40.902Z,8.80
2022-10-24T05:06:45.022Z,8.03
2022-10-24T05:07:47.494Z,10.13
2022-10-24T05:08:49.272Z,13.33
2022-10-24T05:09:50.903Z,9.97
2022-10-24T05:10:52.997Z,8.40
2022-10-24T05:11:55.846Z,7.60
2022-10-24T05:12:57.651Z,7.87
2022-10-24T05:13:59.936Z,6.93
2022-10-24T05:15:01.516Z,8.40
2022-10-24T05:16:03.540Z,9.97
2022-10-24T05:17:05.081Z,7.17
2022-10-24T05:18:06.830Z,7.17
2022-10-24T05:19:08.507Z,8.23
2022-10-24T05:20:10.636Z,7.70
2022-10-24T05:21:12.605Z,11.57
2022-10-24T05:22:14.144Z,9.00
2022-10-24T05:23:15.873Z,9.50
2022-10-24T05:24:17.507Z,11.77
2022-10-24T05:25:19.439Z,9.43
2022-10-24T05:26:20.964Z,16.27
2022-10-24T05:27:24.852Z,24.43
2022-10-24T05:28:26.419Z,16.33
2022-10-24T05:29:28.001Z,12.07
2022-10-24T05:30:29.562Z,10.13
2022-10-24T05:32:33.811Z,16.50
2022-10-24T05:33:37.553Z,17.93
2022-10-24T05:34:39.381Z,22.27
2022-10-24T05:35:41.860Z,22.33
2022-10-24T05:36:43.703Z,18.87
2022-10-24T05:37:45.438Z,22.20
2022-10-24T05:38:47.065Z,20.53
2022-10-24T05:39:48.655Z,18.50
2022-10-24T05:40:51.540Z,25.97
2022-10-24T05:41:55.298Z,30.57
2022-10-24T05:42:57.210Z,30.77
2022-10-24T05:43:58.940Z,32.97
2022-10-24T05:45:00.492Z,22.53
2022-10-24T05:46:02.118Z,21.93
2022-10-24T05:47:03.756Z,27.07
2022-10-24T05:48:06.093Z,28.80
2022-10-24T05:49:07.794Z,32.87
2022-10-24T05:50:10.562Z,27.87
2022-10-24T05:51:12.157Z,24.97
2022-10-24T05:52:13.704Z,24.93
2022-10-24T05:53:15.396Z,21.93
2022-10-24T05:54:17.306Z,19.10
2022-10-24T05:55:19.131Z,19.80
2022-10-24T05:56:20.716Z,20.50
2022-10-24T05:57:25.397Z,21.70
2022-10-24T05:58:27.631Z,21.53
2022-10-24T05:59:29.302Z,17.93
2022-10-24T06:00:33.893Z,23.67
2022-10-24T06:01:35.658Z,22.00
2022-10-24T06:02:37.328Z,27.77
2022-10-24T06:03:39.625Z,27.00
2022-10-24T06:04:41.185Z,16.80
2022-10-24T06:05:43.101Z,22.87
2022-10-24T06:06:45.422Z,25.80
2022-10-24T06:07:47.753Z,17.23
2022-10-24T06:08:50.191Z,28.87
2022-10-24T06:09:51.778Z,27.93
2022-10-24T06:10:53.701Z,24.23
2022-10-24T06:11:55.311Z,22.33
2022-10-24T06:12:56.884Z,29.23
2022-10-24T06:13:58.582Z,28.20
2022-10-24T06:15:00.883Z,23.33
2022-10-24T06:16:05.782Z,29.27
2022-10-24T06:17:16.644Z,37.47
2022-10-24T06:18:18.275Z,30.07
2022-10-24T06:19:21.813Z,25.30
2022-10-24T06:20:23.499Z,25.27
2022-10-24T06:21:25.153Z,23.23
2022-10-24T06:22:29.657Z,22.17
2022-10-24T06:23:31.905Z,30.93
2022-10-24T06:24:38.207Z,30.63
2022-10-24T06:25:43.229Z,24.90
2022-10-24T06:26:44.941Z,22.63
2022-10-24T06:27:46.513Z,28.73
2022-10-24T06:28:48.093Z,24.10
2022-10-24T06:29:49.694Z,21.70
2022-10-24T06:30:52.536Z,25.43
2022-10-24T06:31:54.197Z,23.63
2022-10-24T06:32:55.747Z,22.33
2022-10-24T06:33:57.577Z,26.03
2022-10-24T06:34:59.180Z,20.00
2022-10-24T06:36:05.630Z,21.47
2022-10-24T06:37:07.192Z,24.83
2022-10-24T06:38:08.935Z,23.47
2022-10-24T06:39:11.645Z,18.50
2022-10-24T06:40:13.309Z,13.90
2022-10-24T06:41:17.265Z,21.30
2022-10-24T06:42:18.885Z,26.03
2022-10-24T06:43:20.821Z,21.17
2022-10-24T06:44:22.851Z,22.53
2022-10-24T06:45:24.773Z,31.47
2022-10-24T06:46:26.325Z,24.40
2022-10-24T06:47:28.002Z,25.33
2022-10-24T06:48:29.524Z,19.27
2022-10-24T06:49:31.072Z,41.17
2022-10-24T06:50:32.622Z,30.70
2022-10-24T06:51:34.585Z,23.53
2022-10-24T06:52:37.355Z,19.00
2022-10-24T06:53:38.907Z,16.60
2022-10-24T06:54:43.619Z,17.97
2022-10-24T06:55:45.167Z,19.93
2022-10-24T06:56:46.767Z,25.53
2022-10-24T06:57:48.376Z,18.00
2022-10-24T06:58:49.942Z,24.57
2022-10-24T06:59:51.482Z,22.70
2022-10-24T07:00:53.124Z,16.30
2022-10-24T07:01:54.878Z,15.50
2022-10-24T07:02:56.471Z,17.87
2022-10-24T07:03:58.042Z,20.43
2022-10-24T07:04:59.611Z,17.57
2022-10-24T07:06:10.375Z,19.97
2022-10-24T07:07:16.778Z,18.03
2022-10-24T07:08:18.450Z,22.40
2022-10-24T07:09:20.396Z,24.30
2022-10-24T07:10:22.097Z,15.83
2022-10-24T07:11:24.707Z,17.53
2022-10-24T07:12:26.692Z,22.33
2022-10-24T07:13:29.696Z,20.07
2022-10-24T07:14:31.261Z,19.53
2022-10-24T07:15:32.999Z,22.73
2022-10-24T07:16:34.689Z,16.97
2022-10-24T07:17:43.844Z,19.43
2022-10-24T07:18:45.422Z,23.50
2022-10-24T07:19:55.152Z,16.70
2022-10-24T07:21:13.025Z,16.77
2022-10-24T07:22:14.637Z,15.27
2022-10-24T07:23:16.262Z,26.67
2022-10-24T07:24:18.211Z,21.17
2022-10-24T07:25:20.989Z,17.03
2022-10-24T07:26:24.975Z,16.93
2022-10-24T07:27:26.736Z,22.27
2022-10-24T07:28:28.581Z,20.10
2022-10-24T07:29:30.225Z,17.33
2022-10-24T07:30:31.886Z,18.27
2022-10-24T07:31:35.914Z,23.27
2022-10-24T07:32:37.472Z,20.97
2022-10-24T07:33:40.294Z,17.93
2022-10-24T07:34:41.908Z,18.43
2022-10-24T07:35:43.483Z,20.80
2022-10-24T07:36:45.077Z,20.90
2022-10-24T07:37:46.924Z,20.63
2022-10-24T07:38:50.163Z,15.87
2022-10-24T07:39:51.740Z,21.87
2022-10-24T07:40:53.415Z,16.33
2022-10-24T07:41:55.037Z,17.93
2022-10-24T07:42:56.594Z,21.50
2022-10-24T07:44:02.542Z,14.77
2022-10-24T07:45:04.488Z,13.63
2022-10-24T07:46:07.704Z,19.43
2022-10-24T07:47:10.134Z,18.43
2022-10-24T07:48:11.997Z,21.43
2022-10-24T07:49:13.569Z,13.87
2022-10-24T07:50:17.311Z,14.00
2022-10-24T07:51:19.616Z,15.50
2022-10-24T07:52:21.181Z,11.30
2022-10-24T07:53:22.677Z,13.07
2022-10-24T07:54:25.730Z,17.07
2022-10-24T07:55:27.425Z,15.93
2022-10-24T07:56:29.033Z,17.50
2022-10-24T07:57:30.618Z,16.40
2022-10-24T07:58:32.179Z,17.83
2022-10-24T07:59:42.603Z,17.10
2022-10-24T08:00:45.637Z,21.60
2022-10-24T08:01:47.513Z,21.13
2022-10-24T08:03:56.805Z,14.90
2022-10-24T08:04:58.613Z,18.50
2022-10-24T08:06:00.545Z,15.27
2022-10-24T08:07:02.100Z,20.70
2022-10-24T08:08:19.991Z,14.03
2022-10-24T08:09:26.615Z,22.93
2022-10-24T08:10:28.235Z,20.53
2022-10-24T08:11:31.409Z,20.50
2022-10-24T08:12:37.945Z,13.57
2022-10-24T08:13:41.683Z,13.70
2022-10-24T08:14:44.327Z,16.63
2022-10-24T08:15:45.860Z,19.63
2022-10-24T08:16:48.748Z,15.20
2022-10-24T08:17:50.293Z,15.45
2022-10-24T08:18:53.721Z,11.20
2022-10-24T08:19:55.316Z,17.83
2022-10-24T08:21:01.013Z,14.93
2022-10-24T08:22:03.671Z,14.93
2022-10-24T08:23:05.288Z,14.95
2022-10-24T08:24:07.197Z,14.68
2022-10-24T08:25:10.184Z,16.50
2022-10-24T08:26:17.674Z,15.07
2022-10-24T08:27:19.266Z,19.17
2022-10-24T08:28:21.008Z,26.95
2022-10-24T08:29:23.501Z,14.57
2022-10-24T08:30:25.083Z,16.75
2022-10-24T08:31:26.824Z,13.75
2022-10-24T08:32:28.411Z,14.88
2022-10-24T08:33:30.724Z,18.08
2022-10-24T08:34:32.637Z,21.38
2022-10-24T08:35:34.212Z,21.77
2022-10-24T08:36:36.305Z,21.33
2022-10-24T08:38:44.726Z,44.28
2022-10-24T08:39:46.291Z,26.97
2022-10-24T08:40:48.979Z,26.63
2022-10-24T08:41:59.402Z,24.45
2022-10-24T08:43:02.015Z,29.23
2022-10-24T08:44:14.419Z,25.48
2022-10-24T08:45:57.527Z,18.57
2022-10-24T08:47:29.151Z,24.13
2022-10-24T08:48:42.136Z,19.13
2022-10-24T08:49:50.481Z,30.70
2022-10-24T08:50:59.104Z,26.60
2022-10-24T08:52:04.661Z,24.77
2022-10-24T08:53:12.646Z,22.95
2022-10-24T08:54:19.553Z,22.75
2022-10-24T08:55:48.678Z,24.95
2022-10-24T08:56:55.337Z,38.73
2022-10-24T08:58:00.941Z,21.95
2022-10-24T08:59:04.475Z,23.42
2022-10-24T09:00:27.796Z,20.05
2022-10-24T09:01:33.474Z,25.17
2022-10-24T09:02:39.808Z,25.40
2022-10-24T09:03:57.557Z,36.45
2022-10-24T09:05:17.386Z,27.10
2022-10-24T09:06:22.313Z,25.20
2022-10-24T09:07:27.932Z,16.65
2022-10-24T09:08:38.546Z,21.38
2022-10-24T09:09:44.417Z,21.73
2022-10-24T09:10:58.104Z,25.40
2022-10-24T09:12:01.296Z,22.30
2022-10-24T09:13:02.961Z,20.80
2022-10-24T09:14:13.432Z,18.33
2022-10-24T09:15:26.093Z,22.25
2022-10-24T09:16:27.797Z,25.30
2022-10-24T09:17:32.706Z,25.80
2022-10-24T09:18:40.276Z,26.98
2022-10-24T09:19:49.948Z,22.83
2022-10-24T09:20:54.081Z,26.13
2022-10-24T09:21:57.659Z,23.27
2022-10-24T09:23:03.211Z,23.30
2022-10-24T09:24:05.333Z,18.00
2022-10-24T09:25:16.150Z,19.65
2022-10-24T09:26:33.100Z,22.88
2022-10-24T09:27:37.908Z,14.13
2022-10-24T09:28:39.832Z,22.67
2022-10-24T09:29:41.954Z,16.02
2022-10-24T09:30:43.957Z,13.05
2022-10-24T09:31:49.393Z,22.05
2022-10-24T09:32:52.789Z,15.55
2022-10-24T09:33:56.706Z,18.13
2022-10-24T09:35:05.764Z,13.93
2022-10-24T09:36:12.561Z,20.35
2022-10-24T09:37:44.250Z,18.60
2022-10-24T09:38:51.554Z,17.92
2022-10-24T09:40:06.730Z,17.95
2022-10-24T09:41:15.865Z,11.88
2022-10-24T09:42:23.851Z,11.90
2022-10-24T09:43:39.030Z,15.10
2022-10-24T09:44:44.087Z,17.35
2022-10-24T09:45:51.566Z,14.05
2022-10-24T09:46:53.351Z,14.75
2022-10-24T09:48:00.321Z,12.43
2022-10-24T09:49:19.738Z,10.57
2022-10-24T09:50:22.527Z,11.73
2022-10-24T09:51:29.198Z,17.65
2022-10-24T09:52:35.655Z,26.92
2022-10-24T09:53:41.000Z,12.63
2022-10-24T09:54:45.314Z,10.77
2022-10-24T09:55:48.365Z,12.77
2022-10-24T09:57:12.625Z,8.75
2022-10-24T09:58:20.616Z,15.45
2022-10-24T09:59:47.974Z,11.60
2022-10-24T10:01:22.819Z,9.45
2022-10-24T10:02:34.608Z,9.85
2022-10-24T10:03:36.353Z,9.07
2022-10-24T10:04:38.902Z,7.65
2022-10-24T10:05:48.244Z,8.63
2022-10-24T10:06:50.672Z,10.05
2022-10-24T10:07:52.941Z,9.73
2022-10-24T10:08:56.465Z,7.82
2022-10-24T10:10:19.997Z,9.45
2022-10-24T10:11:37.627Z,7.07
2022-10-24T10:12:42.439Z,6.90
2022-10-24T10:13:56.195Z,11.02
2022-10-24T10:14:58.070Z,4.30
2022-10-24T10:16:04.202Z,12.43
2022-10-24T10:17:07.499Z,9.90
2022-10-24T10:18:55.582Z,9.27
2022-10-24T10:19:58.336Z,9.32
2022-10-24T10:21:10.024Z,8.55
2022-10-24T10:22:25.584Z,6.45
2022-10-24T10:23:29.221Z,9.23
2022-10-24T10:24:33.721Z,4.38
2022-10-24T10:25:35.411Z,9.73
2022-10-24T10:26:45.591Z,4.88
2022-10-24T10:27:51.254Z,6.50
2022-10-24T10:29:00.131Z,7.25
2022-10-24T10:30:18.576Z,6.05
2022-10-24T10:31:24.865Z,8.25
2022-10-24T10:32:38.076Z,6.35
2022-10-24T10:33:52.491Z,3.92
2022-10-24T10:35:07.929Z,7.47
2022-10-24T10:36:28.054Z,7.82
2022-10-24T10:37:31.908Z,9.85
2022-10-24T10:38:52.275Z,6.97
2022-10-24T10:40:28.779Z,7.72
2022-10-24T10:41:37.390Z,9.23
2022-10-24T10:42:41.693Z,15.65
2022-10-24T10:43:57.598Z,10.60
2022-10-24T10:45:16.960Z,8.70
2022-10-24T10:47:10.844Z,10.43
2022-10-24T10:48:21.663Z,12.63
2022-10-24T10:49:26.002Z,9.15
2022-10-24T10:50:42.443Z,10.63
2022-10-24T10:52:06.652Z,6.13
2022-10-24T10:53:30.159Z,9.45
2022-10-24T10:54:41.636Z,9.80
2022-10-24T10:55:59.117Z,7.95
2022-10-24T10:57:07.750Z,11.80
2022-10-24T10:58:18.157Z,9.80
2022-10-24T10:59:57.455Z,7.85
2022-10-24T11:01:26.401Z,8.75
2022-10-24T11:02:50.610Z,13.27
2022-10-24T11:04:05.248Z,8.73
2022-10-24T11:05:24.511Z,9.60
2022-10-24T11:06:49.291Z,22.23
2022-10-24T11:08:17.178Z,21.85
2022-10-24T11:09:29.627Z,10.57
2022-10-24T11:10:42.064Z,7.93
2022-10-24T11:11:52.096Z,19.65
2022-10-24T11:12:55.872Z,6.40
2022-10-24T11:14:11.292Z,15.10
2022-10-24T11:15:29.727Z,16.27
2022-10-24T11:16:32.393Z,8.23
2022-10-24T11:17:50.962Z,15.43
2022-10-24T11:18:57.087Z,12.30
2022-10-24T11:20:18.211Z,13.30
2022-10-24T11:21:24.077Z,13.05
2022-10-24T11:22:31.164Z,12.00
2022-10-24T11:23:51.629Z,14.75
2022-10-24T11:25:02.597Z,15.02
2022-10-24T11:26:09.508Z,13.73
2022-10-24T11:28:55.750Z,15.50
2022-10-24T11:30:06.787Z,8.88
2022-10-24T11:31:17.273Z,18.42
2022-10-24T11:32:54.929Z,9.38
2022-10-24T11:34:16.256Z,8.35
2022-10-24T11:35:31.121Z,12.30
2022-10-24T11:36:53.407Z,9.63
2022-10-24T11:38:05.418Z,11.48
2022-10-24T11:39:20.203Z,12.30
2022-10-24T11:40:25.008Z,17.40
2022-10-24T11:41:58.430Z,10.73
2022-10-24T11:43:33.259Z,13.20
2022-10-24T11:44:50.554Z,8.88
2022-10-24T11:46:02.553Z,9.38
2022-10-24T11:47:19.495Z,13.50
2022-10-24T11:48:53.294Z,9.63
2022-10-24T11:49:55.074Z,11.23
2022-10-24T11:51:01.070Z,10.52
2022-10-24T11:52:19.039Z,8.13
2022-10-24T11:53:47.301Z,10.80
2022-10-24T11:54:59.294Z,16.52
2022-10-24T11:56:37.812Z,12.75
2022-10-24T11:57:43.566Z,16.30
2022-10-24T11:59:26.699Z,13.00
2022-10-24T12:00:37.870Z,17.00
2022-10-24T12:01:57.347Z,11.52
2022-10-24T12:03:26.229Z,14.25
2022-10-24T12:05:09.367Z,13.60
2022-10-24T12:06:29.827Z,16.92
2022-10-24T12:07:52.922Z,14.40
2022-10-24T12:09:09.312Z,16.00
2022-10-24T12:10:14.009Z,18.42
2022-10-24T12:11:41.989Z,13.35
2022-10-24T12:12:49.284Z,9.57
2022-10-24T12:14:28.608Z,16.48
2022-10-24T12:15:56.962Z,19.73
2022-10-24T12:17:18.887Z,13.88
2022-10-24T12:18:30.412Z,18.83
2022-10-24T12:19:32.508Z,19.52
2022-10-24T12:20:35.332Z,15.30
2022-10-24T12:21:50.146Z,19.13
2022-10-24T12:22:53.938Z,17.20
2022-10-24T12:23:59.050Z,18.13
2022-10-24T12:25:10.931Z,18.27
2022-10-24T12:26:24.232Z,21.77
2022-10-24T12:27:39.690Z,15.88
2022-10-24T12:28:43.490Z,15.73
2022-10-24T12:29:45.070Z,22.33
2022-10-24T12:31:22.278Z,22.48
2022-10-24T12:32:42.383Z,16.33
2022-10-24T12:34:04.959Z,23.13
2022-10-24T12:35:49.441Z,17.63
2022-10-24T12:37:18.680Z,18.15
2022-10-24T12:38:29.488Z,19.35
2022-10-24T12:39:37.490Z,15.85
2022-10-24T12:40:45.383Z,25.10
2022-10-24T12:41:47.194Z,24.27
2022-10-24T12:42:51.999Z,20.65
2022-10-24T12:44:37.103Z,19.38
2022-10-24T12:45:38.918Z,23.52
2022-10-24T12:46:40.404Z,20.25
2022-10-24T12:48:02.770Z,15.45
2022-10-24T12:49:10.447Z,13.85
2022-10-24T12:50:23.726Z,16.95
2022-10-24T12:51:38.123Z,18.30
2022-10-24T12:52:45.888Z,18.17
2022-10-24T12:54:06.026Z,17.50
2022-10-24T12:55:39.475Z,20.25
2022-10-24T12:56:51.242Z,41.42
2022-10-24T12:57:53.153Z,23.77
2022-10-24T12:59:16.103Z,14.30
2022-10-24T13:00:30.186Z,17.30
2022-10-24T13:01:36.626Z,19.90
2022-10-24T13:02:47.785Z,14.00
2022-10-24T13:03:53.485Z,17.63
2022-10-24T13:05:33.631Z,17.45
2022-10-24T13:06:50.257Z,31.95
2022-10-24T13:08:13.491Z,19.45
2022-10-24T13:09:30.861Z,17.98
2022-10-24T13:11:03.147Z,20.58
2022-10-24T13:12:28.526Z,21.65
2022-10-24T13:13:39.406Z,17.00
2022-10-24T13:14:43.471Z,18.55
2022-10-24T13:16:12.905Z,15.80
2022-10-24T13:17:40.248Z,14.55
2022-10-24T13:19:03.931Z,23.17
2022-10-24T13:20:18.383Z,18.75
2022-10-24T13:21:51.956Z,20.92
2022-10-24T13:23:12.320Z,17.73
2022-10-24T13:24:16.719Z,15.18
2022-10-24T13:25:36.667Z,23.13
2022-10-24T13:26:45.575Z,20.92
2022-10-24T13:28:25.294Z,27.33
2022-10-24T13:29:30.978Z,14.63
2022-10-24T13:30:40.034Z,18.55
2022-10-24T13:31:55.002Z,19.67
2022-10-24T13:33:33.984Z,18.90
2022-10-24T13:34:48.985Z,22.23
2022-10-24T13:35:51.555Z,17.13
2022-10-24T13:37:24.449Z,19.33
2022-10-24T13:38:26.564Z,22.10
2022-10-24T13:39:41.325Z,14.80
2022-10-24T13:40:46.118Z,19.05
2022-10-24T13:41:58.654Z,14.65
2022-10-24T13:43:07.550Z,22.92
2022-10-24T13:44:12.197Z,22.00
2022-10-24T13:45:28.846Z,24.25
2022-10-24T13:46:54.360Z,25.50
2022-10-24T13:48:12.101Z,19.17
2022-10-24T13:49:27.731Z,15.07
2022-10-24T13:50:33.944Z,24.63
2022-10-24T13:51:45.906Z,16.98
2022-10-24T13:53:00.542Z,17.80
2022-10-24T13:54:21.169Z,22.48
2022-10-24T13:55:33.458Z,18.00
2022-10-24T13:56:41.421Z,18.05
2022-10-24T13:57:55.571Z,16.05
2022-10-24T13:58:57.206Z,23.45
2022-10-24T14:00:02.587Z,18.45
2022-10-24T14:01:37.670Z,29.20
2022-10-24T14:02:45.874Z,19.67
2022-10-24T14:03:49.243Z,20.30
2022-10-24T14:04:54.734Z,20.73
2022-10-24T14:06:03.616Z,21.80
2022-10-24T14:07:09.560Z,16.58
2022-10-24T14:08:28.547Z,17.58
2022-10-24T14:09:30.930Z,22.67
2022-10-24T14:10:32.877Z,30.17
2022-10-24T14:11:39.607Z,28.50
2022-10-24T14:12:41.775Z,19.42
2022-10-24T14:13:48.896Z,22.92
2022-10-24T14:14:52.849Z,21.63
2022-10-24T14:16:04.281Z,16.00
2022-10-24T14:17:26.390Z,22.63
2022-10-24T14:18:28.241Z,22.48
2022-10-24T14:19:36.186Z,20.05
2022-10-24T14:20:39.036Z,24.40
2022-10-24T14:21:43.412Z,22.00
2022-10-24T14:22:45.212Z,26.48
2022-10-24T14:23:58.360Z,21.60
2022-10-24T14:25:00.202Z,23.20
2022-10-24T14:26:08.688Z,28.13
2022-10-24T14:27:13.473Z,19.35
2022-10-24T14:28:17.371Z,21.55
2022-10-24T14:29:27.768Z,24.85
2022-10-24T14:30:34.271Z,18.35
2022-10-24T14:31:37.192Z,20.92
2022-10-24T14:32:39.362Z,15.90
2022-10-24T14:33:50.497Z,22.85
2022-10-24T14:34:55.556Z,20.63
2022-10-24T14:36:11.415Z,20.95
2022-10-24T14:37:19.314Z,22.45
2022-10-24T14:38:22.707Z,25.65
2022-10-24T14:39:24.563Z,22.95
2022-10-24T14:40:26.372Z,22.05